createdAt,value
2022-10-11T00:02:52.166Z,22.70
2022-10-11T00:05:53.708Z,22.70
2022-10-11T00:08:55.140Z,22.60
2022-10-11T00:11:56.549Z,22.70
2022-10-11T00:14:58.092Z,22.40
2022-10-11T00:18:05.080Z,22.60
2022-10-11T00:21:11.204Z,22.50
2022-10-11T00:24:12.976Z,22.50
2022-10-11T00:27:14.697Z,22.40
2022-10-11T00:30:16.327Z,22.90
2022-10-11T00:33:18.351Z,22.60
2022-10-11T00:36:20.160Z,22.30
2022-10-11T00:39:21.686Z,22.50
2022-10-11T00:42:23.872Z,22.60
2022-10-11T00:45:48.005Z,22.30
2022-10-11T00:48:55.975Z,22.50
2022-10-11T00:52:02.331Z,22.30
2022-10-11T00:55:07.989Z,22.50
2022-10-11T00:58:11.832Z,22.60
2022-10-11T01:01:13.590Z,22.60
2022-10-11T01:04:15.614Z,22.70
2022-10-11T01:07:19.309Z,22.50
2022-10-11T01:10:21.897Z,22.90
2022-10-11T01:13:34.926Z,22.60
2022-10-11T01:16:42.142Z,22.70
2022-10-11T01:19:58.873Z,22.50
2022-10-11T01:23:30.219Z,22.70
2022-10-11T01:26:58.530Z,22.80
2022-10-11T01:33:32.244Z,22.50
2022-10-11T01:36:38.965Z,22.60
2022-10-11T01:39:46.586Z,22.50
2022-10-11T01:42:48.829Z,22.50
2022-10-11T01:45:51.769Z,22.40
2022-10-11T01:48:56.740Z,22.10
2022-10-11T01:52:04.212Z,22.20
2022-10-11T01:55:18.363Z,22.20
2022-10-11T01:58:32.800Z,22.60
2022-10-11T02:01:47.641Z,22.60
2022-10-11T02:04:54.947Z,22.60
2022-10-11T02:08:04.897Z,22.60
2022-10-11T02:11:11.068Z,22.40
2022-10-11T02:14:16.992Z,22.30
2022-10-11T02:17:21.382Z,22.40
2022-10-11T02:20:25.763Z,22.20
2022-10-11T02:23:32.437Z,22.50
2022-10-11T02:26:36.075Z,22.10
2022-10-11T02:29:44.008Z,22.20
2022-10-11T02:32:47.647Z,22.40
2022-10-11T02:35:55.580Z,22.20
2022-10-11T02:39:03.012Z,22.20
2022-10-11T02:42:10.322Z,22.10
2022-10-11T02:45:16.793Z,22.40
2022-10-11T02:48:18.778Z,22.30
2022-10-11T02:51:20.836Z,22.00
2022-10-11T02:54:22.536Z,22.50
2022-10-11T02:57:23.957Z,22.10
2022-10-11T03:00:25.361Z,22.40
2022-10-11T03:03:26.969Z,22.10
2022-10-11T03:06:32.053Z,22.20
2022-10-11T03:09:33.608Z,22.20
2022-10-11T03:12:35.025Z,22.20
2022-10-11T03:15:36.284Z,22.70
2022-10-11T03:18:37.680Z,22.20
2022-10-11T03:21:39.536Z,22.40
2022-10-11T03:24:40.943Z,22.40
2022-10-11T03:27:42.219Z,22.30
2022-10-11T03:30:49.036Z,22.00
2022-10-11T03:33:50.687Z,22.40
2022-10-11T03:36:52.913Z,22.60
2022-10-11T03:39:54.361Z,22.40
2022-10-11T03:42:55.999Z,21.90
2022-10-11T03:45:57.478Z,22.10
2022-10-11T03:48:58.808Z,22.00
2022-10-11T03:52:01.151Z,22.00
2022-10-11T03:55:03.022Z,22.30
2022-10-11T03:58:04.572Z,22.50
2022-10-11T04:01:06.104Z,22.40
2022-10-11T04:04:10.825Z,22.30
2022-10-11T04:07:12.929Z,22.50
2022-10-11T04:10:14.387Z,22.20
2022-10-11T04:13:15.628Z,22.00
2022-10-11T04:16:17.070Z,22.40
2022-10-11T04:19:18.382Z,22.20
2022-10-11T04:22:20.582Z,22.80
2022-10-11T04:25:22.043Z,22.30
2022-10-11T04:28:23.420Z,22.40
2022-10-11T04:31:27.957Z,21.90
2022-10-11T04:34:29.540Z,22.40
2022-10-11T04:37:32.413Z,22.30
2022-10-11T04:40:33.910Z,22.30
2022-10-11T04:43:35.450Z,22.30
2022-10-11T04:46:36.873Z,22.00
2022-10-11T04:49:38.205Z,22.10
2022-10-11T04:52:40.226Z,22.00
2022-10-11T04:55:41.676Z,22.00
2022-10-11T04:58:43.156Z,22.30
2022-10-11T05:01:44.731Z,22.20
2022-10-11T05:04:46.482Z,22.10
2022-10-11T05:07:48.581Z,22.10
2022-10-11T05:10:57.652Z,22.00
2022-10-11T05:13:59.149Z,22.30
2022-10-11T05:17:00.767Z,22.00
2022-10-11T05:20:02.255Z,22.20
2022-10-11T05:23:04.117Z,22.40
2022-10-11T05:26:05.858Z,22.00
2022-10-11T05:29:07.575Z,22.40
2022-10-11T05:32:08.941Z,22.20
2022-10-11T05:35:10.385Z,22.40
2022-10-11T05:38:12.343Z,21.80
2022-10-11T05:41:14.985Z,22.10
2022-10-11T05:44:16.423Z,21.90
2022-10-11T05:47:17.887Z,22.10
2022-10-11T05:50:24.010Z,22.30
2022-10-11T05:53:26.843Z,21.80
2022-10-11T05:56:28.562Z,22.10
2022-10-11T05:59:30.291Z,21.60
2022-10-11T06:02:33.444Z,22.00
2022-10-11T06:05:35.725Z,22.10
2022-10-11T06:08:37.928Z,22.00
2022-10-11T06:11:40.539Z,22.00
2022-10-11T06:14:42.290Z,22.00
2022-10-11T06:17:44.302Z,22.10
2022-10-11T06:20:46.470Z,22.20
2022-10-11T06:23:50.049Z,21.90
2022-10-11T06:26:56.895Z,22.30
2022-10-11T06:29:59.436Z,21.10
2022-10-11T06:33:04.637Z,22.30
2022-10-11T06:36:10.178Z,22.10
2022-10-11T06:39:12.329Z,22.20
2022-10-11T06:42:13.869Z,21.70
2022-10-11T06:45:15.300Z,22.30
2022-10-11T06:48:16.873Z,22.10
2022-10-11T06:51:20.443Z,21.80
2022-10-11T06:54:38.301Z,22.30
2022-10-11T06:57:42.756Z,22.30
2022-10-11T07:00:44.452Z,22.00
2022-10-11T07:03:46.580Z,22.30
2022-10-11T07:06:48.149Z,22.00
2022-10-11T07:09:50.305Z,22.50
2022-10-11T07:12:53.244Z,22.00
2022-10-11T07:15:55.165Z,22.30
2022-10-11T07:19:00.465Z,22.60
2022-10-11T07:22:02.340Z,22.10
2022-10-11T07:25:05.088Z,22.60
2022-10-11T07:28:06.666Z,22.70
2022-10-11T07:31:12.652Z,22.00
2022-10-11T07:34:15.171Z,22.80
2022-10-11T07:37:16.692Z,22.50
2022-10-11T07:40:18.730Z,22.90
2022-10-11T07:43:20.475Z,22.70
2022-10-11T07:46:22.926Z,22.60
2022-10-11T07:49:24.397Z,21.80
2022-10-11T07:52:26.842Z,22.40
2022-10-11T07:55:30.882Z,22.80
2022-10-11T07:58:32.498Z,22.70
2022-10-11T08:01:34.192Z,23.10
2022-10-11T08:04:35.927Z,22.20
2022-10-11T08:07:37.390Z,23.00
2022-10-11T08:10:49.003Z,23.00
2022-10-11T08:13:51.420Z,21.90
2022-10-11T08:16:54.207Z,22.80
2022-10-11T08:19:57.722Z,22.70
2022-10-11T08:23:02.756Z,22.20
2022-10-11T08:26:09.040Z,23.00
2022-10-11T08:33:36.528Z,22.60
2022-10-11T08:37:01.733Z,23.10
2022-10-11T08:40:06.896Z,22.80
2022-10-11T08:43:18.122Z,22.40
2022-10-11T08:46:25.431Z,22.70
2022-10-11T08:49:31.270Z,22.60
2022-10-11T08:52:44.083Z,22.80
2022-10-11T08:55:50.144Z,23.00
2022-10-11T08:58:56.345Z,22.70
2022-10-11T09:02:04.437Z,22.90
2022-10-11T09:05:15.796Z,23.10
2022-10-11T09:08:25.966Z,23.20
2022-10-11T09:11:39.891Z,22.90
2022-10-11T09:14:56.642Z,22.80
2022-10-11T09:18:22.733Z,23.20
2022-10-11T09:21:34.166Z,23.00
2022-10-11T09:24:44.966Z,23.30
2022-10-11T09:28:09.044Z,23.20
2022-10-11T09:31:11.702Z,23.30
2022-10-11T09:34:15.180Z,23.20
2022-10-11T09:37:24.081Z,23.00
2022-10-11T09:40:38.125Z,23.20
2022-10-11T09:43:39.795Z,22.80
2022-10-11T09:46:53.834Z,23.10
2022-10-11T09:50:02.286Z,22.90
2022-10-11T09:53:05.758Z,23.10
2022-10-11T09:56:07.938Z,23.30
2022-10-11T09:59:23.820Z,23.30
2022-10-11T10:02:26.159Z,23.20
2022-10-11T10:05:30.589Z,23.50
2022-10-11T10:08:36.800Z,23.50
2022-10-11T10:11:38.618Z,22.70
2022-10-11T10:14:41.055Z,23.50
2022-10-11T10:17:49.830Z,23.50
2022-10-11T10:20:54.500Z,22.90
2022-10-11T10:23:59.250Z,23.20
2022-10-11T10:27:16.806Z,23.10
2022-10-11T10:30:19.287Z,23.40
2022-10-11T10:33:22.553Z,23.10
2022-10-11T10:36:29.045Z,23.30
2022-10-11T10:39:38.500Z,23.00
2022-10-11T10:42:40.827Z,23.60
2022-10-11T10:46:05.274Z,23.30
2022-10-11T10:52:58.113Z,23.20
2022-10-11T10:56:08.485Z,23.70
2022-10-11T10:59:43.483Z,23.30
2022-10-11T11:02:54.852Z,23.20
2022-10-11T11:06:03.215Z,23.10
2022-10-11T11:09:24.489Z,23.30
2022-10-11T11:12:41.950Z,23.20
2022-10-11T11:15:52.342Z,23.60
2022-10-11T11:19:06.161Z,22.90
2022-10-11T11:22:19.467Z,23.60
2022-10-11T11:25:29.507Z,23.10
2022-10-11T11:28:49.385Z,23.40
2022-10-11T11:32:07.059Z,23.10
2022-10-11T11:35:17.610Z,23.00
2022-10-11T11:38:29.508Z,23.80
2022-10-11T11:41:37.844Z,23.30
2022-10-11T11:44:43.168Z,23.20
2022-10-11T11:47:51.595Z,23.70
2022-10-11T11:51:01.004Z,23.30
2022-10-11T11:54:17.518Z,23.40
2022-10-11T11:57:34.459Z,23.20
2022-10-11T12:00:46.888Z,23.50
2022-10-11T12:03:52.162Z,23.50
2022-10-11T12:07:15.938Z,23.70
2022-10-11T12:10:30.293Z,23.70
2022-10-11T12:13:34.179Z,23.60
2022-10-11T12:17:11.353Z,23.50
2022-10-11T12:20:25.509Z,23.80
2022-10-11T12:23:41.851Z,23.60
2022-10-11T12:26:45.084Z,23.70
2022-10-11T12:29:49.192Z,23.50
2022-10-11T12:33:02.206Z,23.70
2022-10-11T12:36:30.545Z,23.30
2022-10-11T12:39:46.226Z,23.50
2022-10-11T12:43:11.429Z,23.70
2022-10-11T12:46:38.918Z,23.80
2022-10-11T12:49:51.160Z,24.20
2022-10-11T12:53:02.663Z,23.60
2022-10-11T12:56:06.580Z,23.70
2022-10-11T12:59:17.813Z,24.00
2022-10-11T13:02:28.744Z,23.90
2022-10-11T13:05:35.397Z,23.80
2022-10-11T13:08:42.358Z,24.10
2022-10-11T13:11:48.869Z,23.90
2022-10-11T13:14:59.706Z,23.70
2022-10-11T13:18:02.515Z,24.40
2022-10-11T13:21:20.293Z,23.90
2022-10-11T13:24:34.658Z,23.80
2022-10-11T13:27:38.169Z,23.70
2022-10-11T13:30:45.431Z,23.60
2022-10-11T13:33:47.995Z,23.80
2022-10-11T13:36:56.391Z,23.90
2022-10-11T13:40:00.108Z,24.20
2022-10-11T13:43:06.104Z,23.70
2022-10-11T13:46:16.653Z,23.80
2022-10-11T13:49:28.995Z,23.70
2022-10-11T13:52:30.796Z,24.10
2022-10-11T13:55:35.487Z,23.90
2022-10-11T13:58:44.220Z,24.20
2022-10-11T14:01:46.831Z,24.00
2022-10-11T14:04:49.188Z,24.00
2022-10-11T14:07:51.374Z,24.00
2022-10-11T14:10:57.190Z,23.60
2022-10-11T14:13:59.326Z,24.00
2022-10-11T14:17:06.336Z,24.00
2022-10-11T14:20:16.437Z,24.10
2022-10-11T14:23:18.070Z,24.10
2022-10-11T14:26:21.724Z,24.30
2022-10-11T14:29:26.039Z,24.00
2022-10-11T14:32:35.546Z,23.80
2022-10-11T14:35:38.265Z,23.80
2022-10-11T14:38:41.007Z,24.30
2022-10-11T14:41:43.899Z,24.00
2022-10-11T14:44:45.417Z,24.20
2022-10-11T14:47:48.203Z,24.20
2022-10-11T14:50:52.060Z,24.20
2022-10-11T14:53:54.550Z,24.20
2022-10-11T14:57:06.029Z,23.90
2022-10-11T15:00:15.141Z,24.20
2022-10-11T15:03:17.584Z,24.00
2022-10-11T15:06:23.721Z,24.00
2022-10-11T15:09:25.487Z,23.60
2022-10-11T15:12:27.519Z,23.90
2022-10-11T15:15:32.031Z,24.10
2022-10-11T15:18:33.942Z,23.90
2022-10-11T15:21:35.543Z,24.00
2022-10-11T15:24:38.183Z,24.00
2022-10-11T15:27:42.097Z,23.90
2022-10-11T15:30:45.150Z,24.00
2022-10-11T15:33:46.836Z,23.50
2022-10-11T15:36:49.202Z,24.20
2022-10-11T15:39:50.771Z,23.90
2022-10-11T15:42:54.659Z,24.30
2022-10-11T15:45:58.180Z,24.10
2022-10-11T15:49:05.902Z,24.00
2022-10-11T15:52:08.517Z,23.70
2022-10-11T15:55:11.134Z,24.10
2022-10-11T15:58:15.250Z,23.90
2022-10-11T16:01:19.080Z,23.80
2022-10-11T16:04:22.263Z,24.30
2022-10-11T16:07:23.721Z,23.60
2022-10-11T16:10:25.189Z,24.30
2022-10-11T16:13:28.140Z,23.90
2022-10-11T16:16:29.665Z,23.90
2022-10-11T16:19:31.127Z,24.20
2022-10-11T16:22:33.078Z,24.20
2022-10-11T16:25:34.708Z,24.00
2022-10-11T16:28:37.139Z,23.70
2022-10-11T16:31:38.612Z,24.10
2022-10-11T16:34:40.492Z,23.90
2022-10-11T16:37:41.995Z,23.70
2022-10-11T16:40:43.594Z,24.10
2022-10-11T16:43:49.354Z,23.90
2022-10-11T16:46:51.388Z,24.00
2022-10-11T16:49:52.896Z,24.10
2022-10-11T16:52:54.714Z,23.80
2022-10-11T16:55:56.287Z,23.80
2022-10-11T16:59:02.006Z,24.10
2022-10-11T17:02:04.488Z,24.50
2022-10-11T17:05:06.316Z,24.00
2022-10-11T17:08:07.775Z,24.40
2022-10-11T17:11:09.427Z,24.30
2022-10-11T17:14:12.425Z,24.20
2022-10-11T17:17:14.381Z,24.00
2022-10-11T17:20:15.920Z,23.90
2022-10-11T17:23:17.422Z,24.20
2022-10-11T17:26:25.613Z,24.20
2022-10-11T17:29:27.748Z,24.10
2022-10-11T17:32:29.305Z,24.30
2022-10-11T17:35:31.316Z,24.10
2022-10-11T17:38:33.268Z,23.90
2022-10-11T17:41:35.124Z,24.00
2022-10-11T17:44:37.241Z,24.00
2022-10-11T17:47:41.763Z,24.00
2022-10-11T17:50:46.949Z,23.70
2022-10-11T17:53:51.504Z,24.30
2022-10-11T17:56:53.881Z,24.10
2022-10-11T17:59:55.943Z,23.80
2022-10-11T18:02:57.481Z,24.10
2022-10-11T18:06:09.120Z,24.00
2022-10-11T18:09:11.941Z,23.90
2022-10-11T18:12:13.383Z,23.60
2022-10-11T18:15:15.433Z,24.00
2022-10-11T18:18:17.433Z,24.00
2022-10-11T18:21:19.713Z,24.10
2022-10-11T18:24:21.238Z,23.90
2022-10-11T18:27:22.734Z,23.70
2022-10-11T18:30:25.052Z,24.00
2022-10-11T18:33:26.467Z,23.90
2022-10-11T18:36:31.966Z,24.00
2022-10-11T18:39:33.373Z,24.10
2022-10-11T18:42:35.587Z,23.80
2022-10-11T18:45:37.846Z,23.70
2022-10-11T18:48:40.677Z,23.70
2022-10-11T18:51:42.329Z,23.90
2022-10-11T18:54:43.949Z,23.90
2022-10-11T18:57:45.643Z,23.90
2022-10-11T19:00:47.806Z,23.60
2022-10-11T19:03:51.785Z,23.60
2022-10-11T19:06:53.422Z,23.70
2022-10-11T19:09:54.815Z,23.40
2022-10-11T19:12:56.104Z,23.60
2022-10-11T19:16:04.923Z,23.70
2022-10-11T19:19:08.579Z,23.40
2022-10-11T19:22:10.063Z,23.40
2022-10-11T19:25:11.501Z,23.50
2022-10-11T19:28:15.721Z,23.80
2022-10-11T19:31:17.984Z,23.60
2022-10-11T19:34:20.385Z,23.30
2022-10-11T19:37:22.117Z,23.70
2022-10-11T19:40:23.628Z,23.70
2022-10-11T19:43:24.999Z,23.70
2022-10-11T19:49:48.652Z,23.50
2022-10-11T19:52:50.107Z,23.40
2022-10-11T19:55:51.484Z,23.50
2022-10-11T19:58:52.915Z,23.70
2022-10-11T20:01:55.020Z,23.30
2022-10-11T20:04:56.598Z,23.60
2022-10-11T20:07:58.234Z,23.50
2022-10-11T20:11:01.691Z,23.20
2022-10-11T20:14:03.262Z,23.30
2022-10-11T20:17:05.343Z,23.40
2022-10-11T20:20:07.655Z,24.00
2022-10-11T20:23:09.098Z,23.00
2022-10-11T20:26:11.616Z,23.40
2022-10-11T20:29:13.118Z,23.20
2022-10-11T20:32:15.170Z,23.30
2022-10-11T20:35:16.640Z,23.30
2022-10-11T20:38:18.405Z,23.60
2022-10-11T20:41:21.705Z,23.20
2022-10-11T20:44:23.288Z,23.10
2022-10-11T20:47:25.568Z,23.50
2022-10-11T20:50:26.956Z,23.00
2022-10-11T20:53:28.839Z,23.70
2022-10-11T20:56:30.789Z,23.30
2022-10-11T20:59:32.363Z,23.20
2022-10-11T21:02:34.862Z,23.20
2022-10-11T21:05:36.504Z,23.40
2022-10-11T21:08:39.660Z,22.90
2022-10-11T21:11:41.157Z,23.20
2022-10-11T21:14:42.674Z,23.40
2022-10-11T21:17:46.221Z,22.70
2022-10-11T21:20:48.935Z,22.60
2022-10-11T21:23:54.137Z,22.90
2022-10-11T21:27:00.275Z,23.10
2022-10-11T21:30:02.621Z,23.10
2022-10-11T21:33:04.605Z,23.30
2022-10-11T21:36:08.011Z,23.10
2022-10-11T21:39:12.595Z,23.30
2022-10-11T21:42:14.080Z,23.30
2022-10-11T21:45:20.963Z,22.60
2022-10-11T21:48:23.062Z,23.00
2022-10-11T21:51:27.073Z,23.00
2022-10-11T21:54:28.613Z,22.90
2022-10-11T21:57:30.115Z,22.90
2022-10-11T22:00:34.656Z,23.20
2022-10-11T22:03:36.657Z,23.10
2022-10-11T22:06:38.650Z,22.90
2022-10-11T22:09:40.168Z,23.40
2022-10-11T22:12:41.551Z,22.90
2022-10-11T22:15:42.982Z,22.40
2022-10-11T22:18:44.973Z,23.50
2022-10-11T22:21:46.375Z,23.10
2022-10-11T22:24:47.705Z,23.00
2022-10-11T22:27:49.101Z,22.50
2022-10-11T22:30:50.618Z,22.60
2022-10-11T22:33:54.251Z,23.30
2022-10-11T22:36:55.805Z,22.80
2022-10-11T22:39:57.431Z,22.50
2022-10-11T22:42:58.872Z,22.90
2022-10-11T22:46:00.713Z,22.90
2022-10-11T22:49:02.851Z,22.90
2022-10-11T22:52:04.356Z,23.10
2022-10-11T22:55:06.452Z,22.80
2022-10-11T22:58:10.989Z,22.80
2022-10-11T23:01:17.717Z,22.90
2022-10-11T23:04:20.431Z,22.90
2022-10-11T23:07:21.962Z,22.50
2022-10-11T23:10:26.434Z,22.50
2022-10-11T23:13:27.967Z,22.70
2022-10-11T23:16:29.457Z,22.50
2022-10-11T23:19:31.477Z,22.70
2022-10-11T23:22:32.894Z,22.80
2022-10-11T23:25:34.130Z,22.50
2022-10-11T23:28:36.739Z,22.60
2022-10-11T23:31:41.302Z,22.70
2022-10-11T23:34:43.264Z,22.80
2022-10-11T23:37:44.818Z,22.40
2022-10-11T23:40:46.392Z,22.70
2022-10-11T23:43:53.480Z,22.40
2022-10-11T23:46:56.361Z,22.20
2022-10-11T23:49:58.389Z,22.50
2022-10-11T23:52:59.751Z,22.70
2022-10-11T23:56:01.271Z,22.30
2022-10-11T23:59:02.763Z,22.70
